createdAt,value
2018-06-29T00:00:10.269Z,63.70
2018-06-29T00:01:10.274Z,64.47
2018-06-29T00:02:10.278Z,64.28
2018-06-29T00:03:10.280Z,64.08
2018-06-29T00:04:10.286Z,64.18
2018-06-29T00:05:10.287Z,64.28
2018-06-29T00:06:10.290Z,64.18
2018-06-29T00:07:10.295Z,63.89
2018-06-29T00:08:10.298Z,64.18
2018-06-29T00:09:10.304Z,63.98
2018-06-29T00:10:10.305Z,63.70
2018-06-29T00:11:10.309Z,63.79
2018-06-29T00:12:10.312Z,64.08
2018-06-29T00:13:10.320Z,64.28
2018-06-29T00:14:10.319Z,64.56
2018-06-29T00:15:10.323Z,64.66
2018-06-29T00:16:10.328Z,64.66
2018-06-29T00:17:10.332Z,64.28
2018-06-29T00:18:10.339Z,64.53
2018-06-29T00:19:10.341Z,65.01
2018-06-29T00:20:10.344Z,64.76
2018-06-29T00:21:10.348Z,65.14
2018-06-29T00:22:10.349Z,65.40
2018-06-29T00:23:10.354Z,65.40
2018-06-29T00:24:10.363Z,64.92
2018-06-29T00:25:10.363Z,65.20
2018-06-29T00:26:10.371Z,64.92
2018-06-29T00:27:10.371Z,64.82
2018-06-29T00:28:10.374Z,64.72
2018-06-29T00:29:10.375Z,65.01
2018-06-29T00:30:10.386Z,64.92
2018-06-29T00:31:10.383Z,65.11
2018-06-29T00:32:10.389Z,64.82
2018-06-29T00:33:10.391Z,65.20
2018-06-29T00:34:10.403Z,65.20
2018-06-29T00:35:10.397Z,65.20
2018-06-29T00:36:10.402Z,65.01
2018-06-29T00:37:10.408Z,65.30
2018-06-29T00:38:10.408Z,65.11
2018-06-29T00:39:10.411Z,64.92
2018-06-29T00:40:10.419Z,65.01
2018-06-29T00:41:10.420Z,65.11
2018-06-29T00:42:10.434Z,65.11
2018-06-29T00:43:10.437Z,65.11
2018-06-29T00:44:10.430Z,65.01
2018-06-29T00:45:10.436Z,65.20
2018-06-29T00:46:10.443Z,65.01
2018-06-29T00:47:10.443Z,65.30
2018-06-29T00:48:10.445Z,64.92
2018-06-29T00:49:10.449Z,65.20
2018-06-29T00:50:10.457Z,65.30
2018-06-29T00:51:10.523Z,65.11
2018-06-29T00:52:10.460Z,65.20
2018-06-29T00:53:10.464Z,65.11
2018-06-29T00:54:10.469Z,64.82
2018-06-29T00:55:10.496Z,65.78
2018-06-29T00:56:10.475Z,65.78
2018-06-29T00:57:10.479Z,65.78
2018-06-29T00:58:10.483Z,65.69
2018-06-29T00:59:10.521Z,65.78
2018-06-29T01:00:10.493Z,65.88
2018-06-29T01:01:10.501Z,65.78
2018-06-29T01:02:10.509Z,65.20
2018-06-29T01:03:10.501Z,64.92
2018-06-29T01:04:10.504Z,65.01
2018-06-29T01:05:10.509Z,64.82
2018-06-29T01:06:10.512Z,64.53
2018-06-29T01:07:10.514Z,64.15
2018-06-29T01:08:10.528Z,64.34
2018-06-29T01:09:10.526Z,64.15
2018-06-29T01:10:10.525Z,64.53
2018-06-29T01:11:10.529Z,63.63
2018-06-29T01:12:10.535Z,62.99
2018-06-29T01:13:10.536Z,63.09
2018-06-29T01:14:10.539Z,63.09
2018-06-29T01:15:10.546Z,63.47
2018-06-29T01:16:10.547Z,62.79
2018-06-29T01:17:10.550Z,62.96
2018-06-29T01:18:10.552Z,62.60
2018-06-29T01:19:10.554Z,62.76
2018-06-29T01:20:10.559Z,62.41
2018-06-29T01:21:10.563Z,62.48
2018-06-29T01:22:10.566Z,62.76
2018-06-29T01:23:10.570Z,62.57
2018-06-29T01:24:10.573Z,62.66
2018-06-29T01:25:10.579Z,62.48
2018-06-29T01:26:10.587Z,61.90
2018-06-29T01:27:10.583Z,61.41
2018-06-29T01:28:10.585Z,61.41
2018-06-29T01:29:10.591Z,61.90
2018-06-29T01:30:10.601Z,61.51
2018-06-29T01:31:10.596Z,61.90
2018-06-29T01:32:10.599Z,61.99
2018-06-29T01:33:10.602Z,61.99
2018-06-29T01:34:10.648Z,61.80
2018-06-29T01:35:10.614Z,61.22
2018-06-29T01:36:10.640Z,61.32
2018-06-29T01:37:10.616Z,61.51
2018-06-29T01:38:10.622Z,61.13
2018-06-29T01:39:10.626Z,61.80
2018-06-29T01:40:10.626Z,61.03
2018-06-29T01:41:10.629Z,61.71
2018-06-29T01:42:10.647Z,61.22
2018-06-29T01:43:10.637Z,61.71
2018-06-29T01:44:10.639Z,62.09
2018-06-29T01:45:10.754Z,61.80
2018-06-29T01:46:10.644Z,61.80
2018-06-29T01:47:10.637Z,61.90
2018-06-29T01:48:10.644Z,61.71
2018-06-29T01:49:10.647Z,61.51
2018-06-29T01:50:10.649Z,62.38
2018-06-29T01:51:10.650Z,62.57
2018-06-29T01:52:10.699Z,62.66
2018-06-29T01:53:10.657Z,62.38
2018-06-29T01:54:10.659Z,61.99
2018-06-29T01:55:10.666Z,61.80
2018-06-29T01:56:10.668Z,62.48
2018-06-29T01:57:10.671Z,62.38
2018-06-29T01:58:10.677Z,62.18
2018-06-29T01:59:10.677Z,62.38
2018-06-29T02:00:10.680Z,62.57
2018-06-29T02:01:10.695Z,62.57
2018-06-29T02:02:10.687Z,62.48
2018-06-29T02:03:10.691Z,62.76
2018-06-29T02:04:10.694Z,61.80
2018-06-29T02:05:10.697Z,61.80
2018-06-29T02:06:10.701Z,61.22
2018-06-29T02:07:10.703Z,61.32
2018-06-29T02:08:10.709Z,61.80
2018-06-29T02:09:10.720Z,61.41
2018-06-29T02:10:10.716Z,61.71
2018-06-29T02:11:10.729Z,61.51
2018-06-29T02:12:10.721Z,61.80
2018-06-29T02:13:10.724Z,61.90
2018-06-29T02:14:10.729Z,61.99
2018-06-29T02:15:10.730Z,61.99
2018-06-29T02:16:10.732Z,61.99
2018-06-29T02:17:10.738Z,61.99
2018-06-29T02:18:10.744Z,62.38
2018-06-29T02:19:10.743Z,61.99
2018-06-29T02:20:10.750Z,61.99
2018-06-29T02:21:10.750Z,61.80
2018-06-29T02:22:10.753Z,61.99
2018-06-29T02:23:10.813Z,62.57
2018-06-29T02:24:10.760Z,62.35
2018-06-29T02:25:10.766Z,62.63
2018-06-29T02:26:10.769Z,62.45
2018-06-29T02:27:10.769Z,62.54
2018-06-29T02:28:10.773Z,62.25
2018-06-29T02:29:10.808Z,62.35
2018-06-29T02:30:10.779Z,62.63
2018-06-29T02:31:10.796Z,62.93
2018-06-29T02:32:10.785Z,62.73
2018-06-29T02:33:10.790Z,62.83
2018-06-29T02:34:10.792Z,63.02
2018-06-29T02:35:10.796Z,62.73
2018-06-29T02:36:10.799Z,62.63
2018-06-29T02:37:10.804Z,62.83
2018-06-29T02:38:10.806Z,63.12
2018-06-29T02:39:10.808Z,62.93
2018-06-29T02:40:10.813Z,62.93
2018-06-29T02:41:10.818Z,62.93
2018-06-29T02:42:12.574Z,62.54
2018-06-29T02:43:10.827Z,62.54
2018-06-29T02:44:10.830Z,63.21
2018-06-29T02:45:10.847Z,63.12
2018-06-29T02:46:10.829Z,63.41
2018-06-29T02:47:10.842Z,64.18
2018-06-29T02:48:10.841Z,63.67
2018-06-29T02:49:10.856Z,64.05
2018-06-29T02:50:10.841Z,64.34
2018-06-29T02:51:10.846Z,64.63
2018-06-29T02:52:10.850Z,64.34
2018-06-29T02:53:10.854Z,64.82
2018-06-29T02:54:10.855Z,64.53
2018-06-29T02:55:10.860Z,64.73
2018-06-29T02:56:10.861Z,65.01
2018-06-29T02:57:10.868Z,64.82
2018-06-29T02:58:10.867Z,64.82
2018-06-29T02:59:10.871Z,64.92
2018-06-29T03:00:10.875Z,64.63
2018-06-29T03:01:10.878Z,64.92
2018-06-29T03:02:10.882Z,64.82
2018-06-29T03:03:10.883Z,65.20
2018-06-29T03:04:10.887Z,65.30
2018-06-29T03:05:10.907Z,64.63
2018-06-29T03:06:10.892Z,64.73
2018-06-29T03:07:10.896Z,64.63
2018-06-29T03:08:10.897Z,64.73
2018-06-29T03:09:10.902Z,64.73
2018-06-29T03:10:10.910Z,65.30
2018-06-29T03:11:10.907Z,64.82
2018-06-29T03:12:10.910Z,64.82
2018-06-29T03:13:10.915Z,64.82
2018-06-29T03:14:10.916Z,64.92
2018-06-29T03:15:10.926Z,65.11
2018-06-29T03:16:10.921Z,65.01
2018-06-29T03:17:10.925Z,64.98
2018-06-29T03:18:38.572Z,65.20
2018-06-29T03:19:10.933Z,65.56
2018-06-29T03:20:10.934Z,65.66
2018-06-29T03:21:10.940Z,65.69
2018-06-29T03:22:10.939Z,65.56
2018-06-29T03:23:10.942Z,65.59
2018-06-29T03:24:10.946Z,65.27
2018-06-29T03:25:10.953Z,65.94
2018-06-29T03:26:10.950Z,66.33
2018-06-29T03:27:10.953Z,66.24
2018-06-29T03:28:10.955Z,66.04
2018-06-29T03:29:10.958Z,66.71
2018-06-29T03:30:10.961Z,66.24
2018-06-29T03:31:10.966Z,66.14
2018-06-29T03:32:10.973Z,66.52
2018-06-29T03:33:10.970Z,66.81
2018-06-29T03:34:10.971Z,66.62
2018-06-29T03:35:10.974Z,66.52
2018-06-29T03:36:10.983Z,66.42
2018-06-29T03:37:10.980Z,66.42
2018-06-29T03:38:10.982Z,66.33
2018-06-29T03:39:10.985Z,66.24
2018-06-29T03:40:11.002Z,66.24
2018-06-29T03:41:10.994Z,66.71
2018-06-29T03:42:10.995Z,66.71
2018-06-29T03:43:10.994Z,66.71
2018-06-29T03:44:10.997Z,66.62
2018-06-29T03:45:11.001Z,66.81
2018-06-29T03:46:11.002Z,66.04
2018-06-29T03:47:11.009Z,66.52
2018-06-29T03:48:11.018Z,66.42
2018-06-29T03:49:11.012Z,67.00
2018-06-29T03:50:11.015Z,67.19
2018-06-29T03:51:11.016Z,67.19
2018-06-29T03:52:11.019Z,67.26
2018-06-29T03:53:11.024Z,67.00
2018-06-29T03:54:11.026Z,67.58
2018-06-29T03:55:11.027Z,67.19
2018-06-29T03:56:11.033Z,67.35
2018-06-29T03:57:11.032Z,67.65
2018-06-29T03:58:11.034Z,67.35
2018-06-29T03:59:11.039Z,67.35
2018-06-29T04:00:11.042Z,67.16
2018-06-29T04:01:11.046Z,67.55
2018-06-29T04:02:11.045Z,67.10
2018-06-29T04:03:11.094Z,66.81
2018-06-29T04:04:11.050Z,67.49
2018-06-29T04:05:11.054Z,67.19
2018-06-29T04:06:11.056Z,67.29
2018-06-29T04:07:11.057Z,67.29
2018-06-29T04:08:11.060Z,66.81
2018-06-29T04:09:11.062Z,66.91
2018-06-29T04:10:11.065Z,67.29
2018-06-29T04:11:11.069Z,67.00
2018-06-29T04:12:11.069Z,67.58
2018-06-29T04:13:11.081Z,67.49
2018-06-29T04:14:11.075Z,67.39
2018-06-29T04:15:11.078Z,67.58
2018-06-29T04:16:11.090Z,67.19
2018-06-29T04:17:11.087Z,66.91
2018-06-29T04:18:11.085Z,67.10
2018-06-29T04:19:11.089Z,67.29
2018-06-29T04:20:11.094Z,67.29
2018-06-29T04:21:11.094Z,67.19
2018-06-29T04:22:11.101Z,66.91
2018-06-29T04:23:11.099Z,67.29
2018-06-29T04:24:11.104Z,67.39
2018-06-29T04:25:11.112Z,67.00
2018-06-29T04:26:11.108Z,66.62
2018-06-29T04:27:11.111Z,66.42
2018-06-29T04:28:11.113Z,66.85
2018-06-29T04:29:11.116Z,66.33
2018-06-29T04:30:11.118Z,66.42
2018-06-29T04:31:11.122Z,66.14
2018-06-29T04:32:11.148Z,66.17
2018-06-29T04:33:11.125Z,65.98
2018-06-29T04:34:11.129Z,65.85
2018-06-29T04:35:11.131Z,66.07
2018-06-29T04:36:11.138Z,66.27
2018-06-29T04:37:11.137Z,65.50
2018-06-29T04:38:11.138Z,65.40
2018-06-29T04:39:11.143Z,64.92
2018-06-29T04:40:11.146Z,64.92
2018-06-29T04:41:11.148Z,64.63
2018-06-29T04:42:11.149Z,65.11
2018-06-29T04:43:11.152Z,64.92
2018-06-29T04:44:11.157Z,64.59
2018-06-29T04:45:11.160Z,64.82
2018-06-29T04:46:11.164Z,64.63
2018-06-29T04:47:11.175Z,64.34
2018-06-29T04:48:11.167Z,64.34
2018-06-29T04:49:11.171Z,63.85
2018-06-29T04:50:11.195Z,63.95
2018-06-29T04:51:11.177Z,64.25
2018-06-29T04:52:11.178Z,63.95
2018-06-29T04:53:11.184Z,63.67
2018-06-29T04:54:11.185Z,64.15
2018-06-29T04:55:11.188Z,63.76
2018-06-29T04:56:11.192Z,64.05
2018-06-29T04:57:11.192Z,63.76
2018-06-29T04:58:11.195Z,63.95
2018-06-29T04:59:11.228Z,64.34
2018-06-29T05:00:11.211Z,63.76
2018-06-29T05:01:11.207Z,63.57
2018-06-29T05:02:11.208Z,63.76
2018-06-29T05:03:11.209Z,63.95
2018-06-29T05:04:11.212Z,64.05
2018-06-29T05:05:11.215Z,63.95
2018-06-29T05:06:11.219Z,64.15
2018-06-29T05:07:11.223Z,64.15
2018-06-29T05:08:11.283Z,63.85
2018-06-29T05:09:11.226Z,63.85
2018-06-29T05:10:11.235Z,63.67
2018-06-29T05:11:11.230Z,63.85
2018-06-29T05:12:11.236Z,63.85
2018-06-29T05:13:11.251Z,64.73
2018-06-29T05:14:11.243Z,64.25
2018-06-29T05:15:11.242Z,64.34
2018-06-29T05:16:11.246Z,64.43
2018-06-29T05:17:11.252Z,64.43
2018-06-29T05:18:11.251Z,64.43
2018-06-29T05:19:11.253Z,64.34
2018-06-29T05:20:11.258Z,63.89
2018-06-29T05:21:11.259Z,62.22
2018-06-29T05:22:11.264Z,61.25
2018-06-29T05:23:11.266Z,60.80
2018-06-29T05:24:11.269Z,59.93
2018-06-29T05:25:11.273Z,59.09
2018-06-29T05:26:11.276Z,57.96
2018-06-29T05:27:11.316Z,56.35
2018-06-29T05:28:11.332Z,55.21
2018-06-29T05:29:11.346Z,55.60
2018-06-29T05:30:11.343Z,54.47
2018-06-29T05:31:11.295Z,54.47
2018-06-29T05:32:11.298Z,54.17
2018-06-29T05:33:11.307Z,54.08
2018-06-29T05:34:11.310Z,53.33
2018-06-29T05:35:11.312Z,52.42
2018-06-29T05:36:11.318Z,51.28
2018-06-29T05:37:11.935Z,50.79
2018-06-29T05:38:11.326Z,50.02
2018-06-29T05:39:11.336Z,49.92
2018-06-29T05:40:11.353Z,50.21
2018-06-29T05:41:11.338Z,50.89
2018-06-29T05:42:11.346Z,50.87
2018-06-29T05:43:11.350Z,51.23
2018-06-29T05:44:11.352Z,52.00
2018-06-29T05:45:11.359Z,52.56
2018-06-29T05:46:11.367Z,53.72
2018-06-29T05:47:11.368Z,53.50
2018-06-29T05:48:11.372Z,53.59
2018-06-29T05:49:11.427Z,53.69
2018-06-29T05:50:11.382Z,53.41
2018-06-29T05:51:11.389Z,53.86
2018-06-29T05:52:11.395Z,54.03
2018-06-29T05:53:11.397Z,55.09
2018-06-29T05:54:11.399Z,55.35
2018-06-29T05:55:11.410Z,54.99
2018-06-29T05:56:11.414Z,54.73
2018-06-29T05:57:11.415Z,53.96
2018-06-29T05:58:11.418Z,53.59
2018-06-29T05:59:11.425Z,53.02
2018-06-29T06:00:11.429Z,52.82
2018-06-29T06:01:11.438Z,52.73
2018-06-29T06:02:11.444Z,52.82
2018-06-29T06:03:11.443Z,53.41
2018-06-29T06:04:11.487Z,53.31
2018-06-29T06:05:11.453Z,52.73
2018-06-29T06:06:11.457Z,52.73
2018-06-29T06:07:11.468Z,53.69
2018-06-29T06:08:11.466Z,53.77
2018-06-29T06:09:11.469Z,53.47
2018-06-29T06:10:11.532Z,53.77
2018-06-29T06:11:11.484Z,54.15
2018-06-29T06:12:11.482Z,54.05
2018-06-29T06:13:11.492Z,53.67
2018-06-29T06:14:11.493Z,53.38
2018-06-29T06:15:11.523Z,53.11
2018-06-29T06:16:11.536Z,51.95
2018-06-29T06:17:11.518Z,52.08
2018-06-29T06:18:11.511Z,52.05
2018-06-29T06:19:11.515Z,51.01
2018-06-29T06:20:11.521Z,51.10
2018-06-29T06:21:11.530Z,51.47
2018-06-29T06:22:11.529Z,51.47
2018-06-29T06:23:11.538Z,51.86
2018-06-29T06:24:11.542Z,51.66
2018-06-29T06:25:11.556Z,51.76
2018-06-29T06:26:11.546Z,52.22
2018-06-29T06:27:11.552Z,52.02
2018-06-29T06:28:11.571Z,52.41
2018-06-29T06:29:11.560Z,52.58
2018-06-29T06:30:11.565Z,52.58
2018-06-29T06:31:11.570Z,52.87
2018-06-29T06:32:11.673Z,52.67
2018-06-29T06:33:12.667Z,52.75
2018-06-29T06:34:12.590Z,53.61
2018-06-29T06:35:11.642Z,53.35
2018-06-29T06:36:11.591Z,52.84
2018-06-29T06:37:12.676Z,52.65
2018-06-29T06:38:12.656Z,52.94
2018-06-29T06:39:12.588Z,52.75
2018-06-29T06:40:12.691Z,52.94
2018-06-29T06:41:12.572Z,52.75
2018-06-29T06:42:12.606Z,52.55
2018-06-29T06:43:12.632Z,52.55
2018-06-29T06:44:12.608Z,52.65
2018-06-29T06:45:11.737Z,52.75
2018-06-29T06:46:11.796Z,52.67
2018-06-29T06:47:12.650Z,52.97
2018-06-29T06:48:11.765Z,52.09
2018-06-29T06:49:11.750Z,52.09
2018-06-29T06:50:11.850Z,51.90
2018-06-29T06:51:11.876Z,50.93
2018-06-29T06:52:13.369Z,50.74
2018-06-29T06:53:12.613Z,50.55
2018-06-29T06:54:12.700Z,50.84
2018-06-29T06:55:11.764Z,50.74
2018-06-29T06:56:13.832Z,50.16
2018-06-29T06:57:12.664Z,50.45
2018-06-29T06:58:11.916Z,50.07
2018-06-29T06:59:11.765Z,50.55
2018-06-29T07:00:11.993Z,50.84
2018-06-29T07:01:11.741Z,49.97
2018-06-29T07:02:12.604Z,49.49
2018-06-29T07:03:12.643Z,49.39
2018-06-29T07:04:12.622Z,49.39
2018-06-29T07:05:13.102Z,49.07
2018-06-29T07:06:12.660Z,49.37
2018-06-29T07:07:11.857Z,49.55
2018-06-29T07:08:12.614Z,48.88
2018-06-29T07:09:12.633Z,48.69
2018-06-29T07:10:12.634Z,48.21
2018-06-29T07:11:12.634Z,47.81
2018-06-29T07:12:12.599Z,47.53
2018-06-29T07:13:12.648Z,47.55
2018-06-29T07:14:12.587Z,46.95
2018-06-29T07:15:12.586Z,46.30
2018-06-29T07:16:13.098Z,46.17
2018-06-29T07:17:12.597Z,46.27
2018-06-29T07:18:12.710Z,45.98
2018-06-29T07:19:13.215Z,45.89
2018-06-29T07:20:12.776Z,46.08
2018-06-29T07:21:12.596Z,46.17
2018-06-29T07:22:13.169Z,45.69
2018-06-29T07:23:12.114Z,46.27
2018-06-29T07:24:12.574Z,46.17
2018-06-29T07:25:11.837Z,45.79
2018-06-29T07:26:12.000Z,45.79
2018-06-29T07:27:11.809Z,45.89
2018-06-29T07:28:11.805Z,46.37
2018-06-29T07:29:11.806Z,45.79
2018-06-29T07:30:11.810Z,46.27
2018-06-29T07:31:11.848Z,46.37
2018-06-29T07:32:12.268Z,45.89
2018-06-29T07:33:12.181Z,45.89
2018-06-29T07:34:13.229Z,45.69
2018-06-29T07:35:12.292Z,46.17
2018-06-29T07:36:12.745Z,46.37
2018-06-29T07:37:13.428Z,46.56
2018-06-29T07:38:14.736Z,46.17
2018-06-29T07:39:12.724Z,46.17
2018-06-29T07:40:11.910Z,46.37
2018-06-29T07:41:12.241Z,46.27
2018-06-29T07:42:12.771Z,45.72
2018-06-29T07:43:12.288Z,45.81
2018-06-29T07:44:11.959Z,46.17
2018-06-29T07:45:11.917Z,47.05
2018-06-29T07:46:12.683Z,46.27
2018-06-29T07:47:11.871Z,47.05
2018-06-29T07:48:11.975Z,46.20
2018-06-29T07:49:11.941Z,45.81
2018-06-29T07:50:11.890Z,46.30
2018-06-29T07:51:11.896Z,46.49
2018-06-29T07:52:12.026Z,46.68
2018-06-29T07:53:12.593Z,46.49
2018-06-29T07:54:11.922Z,47.36
2018-06-29T07:55:12.234Z,46.78
2018-06-29T07:56:12.012Z,47.45
2018-06-29T07:57:11.927Z,47.07
2018-06-29T07:58:12.005Z,46.88
2018-06-29T08:00:12.051Z,46.58
2018-06-29T08:01:11.930Z,46.49
2018-06-29T08:02:12.854Z,46.58
2018-06-29T08:03:11.985Z,46.58
2018-06-29T08:04:11.952Z,46.49
2018-06-29T08:05:12.179Z,47.16
2018-06-29T08:06:12.018Z,47.16
2018-06-29T08:07:11.945Z,46.49
2018-06-29T08:08:11.951Z,46.30
2018-06-29T08:09:11.964Z,46.39
2018-06-29T08:10:12.005Z,46.42
2018-06-29T08:11:11.961Z,46.42
2018-06-29T08:12:12.046Z,46.51
2018-06-29T08:13:12.101Z,45.93
2018-06-29T08:14:11.985Z,45.62
2018-06-29T08:15:12.031Z,46.12
2018-06-29T08:16:12.033Z,45.64
2018-06-29T08:17:12.335Z,45.64
2018-06-29T08:18:12.025Z,45.45
2018-06-29T08:19:12.001Z,45.54
2018-06-29T08:20:12.183Z,44.38
2018-06-29T08:21:12.139Z,44.67
2018-06-29T08:22:12.006Z,44.48
2018-06-29T08:23:12.189Z,44.57
2018-06-29T08:24:12.143Z,45.25
2018-06-29T08:25:12.041Z,44.77
2018-06-29T08:26:12.029Z,44.87
2018-06-29T08:27:12.026Z,44.96
2018-06-29T08:28:12.042Z,45.25
2018-06-29T08:29:12.122Z,44.87
2018-06-29T08:30:12.101Z,45.06
2018-06-29T08:31:12.049Z,44.87
2018-06-29T08:32:12.108Z,44.77
2018-06-29T08:33:12.045Z,44.13
2018-06-29T08:34:13.176Z,42.14
2018-06-29T08:35:12.288Z,40.34
2018-06-29T08:36:12.057Z,38.83
2018-06-29T08:37:12.061Z,38.27
2018-06-29T08:38:12.064Z,38.65
2018-06-29T08:39:12.071Z,37.70
2018-06-29T08:40:12.098Z,36.87
2018-06-29T08:41:12.080Z,35.63
2018-06-29T08:42:12.086Z,34.01
2018-06-29T08:43:12.089Z,33.44
2018-06-29T08:44:12.135Z,32.78
2018-06-29T08:45:12.102Z,32.32
2018-06-29T08:46:12.250Z,30.68
2018-06-29T08:47:12.127Z,29.73
2018-06-29T08:48:12.119Z,29.45
2018-06-29T08:49:12.125Z,28.78
2018-06-29T08:50:12.140Z,28.86
2018-06-29T08:51:12.139Z,28.36
2018-06-29T08:52:12.155Z,28.74
2018-06-29T08:53:12.264Z,29.42
2018-06-29T08:54:12.161Z,29.31
2018-06-29T08:55:12.188Z,29.49
2018-06-29T08:56:12.175Z,30.29
2018-06-29T08:57:12.181Z,29.50
2018-06-29T08:58:12.187Z,30.38
2018-06-29T08:59:12.225Z,30.40
2018-06-29T09:00:12.205Z,29.25
2018-06-29T09:01:12.266Z,28.19
2018-06-29T09:02:12.241Z,27.62
2018-06-29T09:03:12.230Z,27.45
2018-06-29T09:04:27.324Z,26.46
2018-06-29T09:05:12.245Z,26.28
2018-06-29T09:06:12.271Z,25.42
2018-06-29T09:07:12.265Z,25.90
2018-06-29T09:08:12.341Z,26.37
2018-06-29T09:09:12.282Z,26.45
2018-06-29T09:10:12.549Z,27.52
2018-06-29T09:11:12.799Z,27.52
2018-06-29T09:12:15.202Z,27.33
2018-06-29T09:13:12.451Z,27.15
2018-06-29T09:14:13.418Z,26.67
2018-06-29T09:15:12.458Z,26.65
2018-06-29T09:16:12.344Z,26.95
2018-06-29T09:17:12.419Z,27.42
2018-06-29T09:18:12.361Z,27.52
2018-06-29T09:19:12.507Z,27.33
2018-06-29T09:20:12.381Z,27.24
2018-06-29T09:21:12.387Z,26.46
2018-06-29T09:22:12.395Z,26.58
2018-06-29T09:23:12.406Z,26.38
2018-06-29T09:24:12.526Z,26.38
2018-06-29T09:25:12.424Z,26.38
2018-06-29T09:26:13.208Z,26.01
2018-06-29T09:27:12.446Z,25.73
2018-06-29T09:28:12.781Z,24.86
2018-06-29T09:29:12.468Z,24.29
2018-06-29T09:30:12.481Z,23.89
2018-06-29T09:31:12.485Z,24.07
2018-06-29T09:32:13.391Z,24.58
2018-06-29T09:33:12.506Z,23.99
2018-06-29T09:34:12.567Z,24.49
2018-06-29T09:35:12.525Z,24.02
2018-06-29T09:36:12.537Z,22.85
2018-06-29T09:37:12.548Z,22.48
2018-06-29T09:38:12.555Z,22.30
2018-06-29T09:39:12.567Z,22.28
2018-06-29T09:40:12.579Z,22.95
2018-06-29T09:41:12.590Z,22.94
2018-06-29T09:42:12.598Z,22.84
2018-06-29T09:43:12.615Z,22.95
2018-06-29T09:44:12.622Z,22.94
2018-06-29T09:45:12.656Z,22.85
2018-06-29T09:46:12.646Z,22.96
2018-06-29T09:47:12.657Z,22.46
2018-06-29T09:48:12.714Z,22.67
2018-06-29T09:49:12.685Z,22.47
2018-06-29T09:50:12.694Z,22.27
2018-06-29T09:51:12.705Z,22.25
2018-06-29T09:52:12.718Z,23.04
2018-06-29T09:53:12.728Z,22.67
2018-06-29T09:54:12.739Z,21.59
2018-06-29T09:55:12.757Z,21.21
2018-06-29T09:56:12.766Z,20.43
2018-06-29T09:57:12.780Z,19.93
2018-06-29T09:58:12.845Z,20.34
2018-06-29T09:59:12.806Z,20.65
2018-06-29T10:00:12.815Z,19.78
2018-06-29T10:01:12.861Z,19.07
2018-06-29T10:02:12.837Z,18.49
2018-06-29T10:03:12.852Z,18.27
2018-06-29T10:04:12.871Z,19.07
2018-06-29T10:05:12.876Z,19.06
2018-06-29T10:06:13.738Z,19.34
2018-06-29T10:07:12.906Z,19.34
2018-06-29T10:08:12.916Z,19.35
2018-06-29T10:09:13.411Z,19.17
2018-06-29T10:10:12.963Z,19.18
2018-06-29T10:11:12.955Z,18.18
2018-06-29T10:12:13.062Z,18.79
2018-06-29T10:13:13.133Z,18.29
2018-06-29T10:14:13.059Z,18.60
2018-06-29T10:15:13.008Z,18.01
2018-06-29T10:16:13.023Z,17.33
2018-06-29T10:17:13.038Z,17.42
2018-06-29T10:18:13.051Z,17.72
2018-06-29T10:19:13.076Z,18.01
2018-06-29T10:20:13.139Z,19.09
2018-06-29T10:21:13.095Z,19.07
2018-06-29T10:22:13.212Z,18.88
2018-06-29T10:23:13.194Z,18.98
2018-06-29T10:24:13.148Z,19.26
2018-06-29T10:25:13.226Z,19.74
2018-06-29T10:26:13.265Z,19.15
2018-06-29T10:27:13.177Z,19.53
2018-06-29T10:28:13.317Z,20.60
2018-06-29T10:29:13.220Z,20.51
2018-06-29T10:30:13.220Z,20.04
2018-06-29T10:31:13.233Z,18.98
2018-06-29T10:32:13.248Z,18.80
2018-06-29T10:33:13.270Z,18.12
2018-06-29T10:34:13.286Z,17.33
2018-06-29T10:35:13.293Z,16.96
2018-06-29T10:36:13.307Z,16.58
2018-06-29T10:37:13.323Z,16.28
2018-06-29T10:38:13.331Z,16.18
2018-06-29T10:39:13.348Z,16.18
2018-06-29T10:40:13.367Z,16.07
2018-06-29T10:41:13.380Z,17.14
2018-06-29T10:42:13.393Z,17.05
2018-06-29T10:43:13.409Z,17.54
2018-06-29T10:44:13.426Z,17.43
2018-06-29T10:45:13.442Z,17.31
2018-06-29T10:46:13.453Z,17.42
2018-06-29T10:47:13.472Z,17.04
2018-06-29T10:48:13.483Z,16.46
2018-06-29T10:49:13.512Z,16.35
2018-06-29T10:50:13.526Z,16.63
2018-06-29T10:51:13.548Z,16.64
2018-06-29T10:52:13.553Z,16.95
2018-06-29T10:53:13.563Z,15.87
2018-06-29T10:54:13.687Z,15.48
2018-06-29T10:55:14.365Z,14.80
2018-06-29T10:56:13.612Z,14.91
2018-06-29T10:57:13.626Z,15.58
2018-06-29T10:58:13.639Z,16.07
2018-06-29T10:59:13.657Z,15.78
2018-06-29T11:00:13.673Z,15.48
2018-06-29T11:01:13.707Z,15.78
2018-06-29T11:02:13.707Z,15.19
2018-06-29T11:03:13.741Z,15.67
2018-06-29T11:04:13.738Z,15.58
2018-06-29T11:05:14.005Z,15.58
2018-06-29T11:06:13.780Z,15.58
2018-06-29T11:07:14.176Z,15.30
2018-06-29T11:08:13.832Z,15.67
2018-06-29T11:09:13.817Z,16.25
2018-06-29T11:10:14.806Z,16.74
2018-06-29T11:11:13.862Z,17.31
2018-06-29T11:12:13.866Z,17.71
2018-06-29T11:13:13.897Z,17.52
2018-06-29T11:14:13.897Z,17.33
2018-06-29T11:15:14.153Z,17.44
2018-06-29T11:16:13.929Z,17.22
2018-06-29T11:17:13.945Z,17.70
2018-06-29T11:18:13.962Z,18.67
2018-06-29T11:19:13.980Z,18.86
2018-06-29T11:20:13.994Z,18.77
2018-06-29T11:21:14.010Z,18.97
2018-06-29T11:22:14.039Z,18.77
2018-06-29T11:23:14.038Z,18.48
2018-06-29T11:24:14.056Z,18.20
2018-06-29T11:25:14.069Z,17.32
2018-06-29T11:26:14.122Z,17.30
2018-06-29T11:27:14.104Z,17.32
2018-06-29T11:28:14.114Z,17.53
2018-06-29T11:29:14.341Z,16.65
2018-06-29T11:30:14.215Z,17.14
2018-06-29T11:31:14.178Z,17.41
2018-06-29T11:32:14.177Z,17.11
2018-06-29T11:33:14.192Z,17.50
2018-06-29T11:34:14.215Z,17.12
2018-06-29T11:35:14.221Z,16.75
2018-06-29T11:36:14.247Z,15.77
2018-06-29T11:37:14.254Z,14.88
2018-06-29T11:38:14.268Z,14.59
2018-06-29T11:39:14.283Z,14.50
2018-06-29T11:40:14.304Z,13.90
2018-06-29T11:41:14.321Z,13.90
2018-06-29T11:42:14.335Z,13.60
2018-06-29T11:43:14.369Z,13.30
2018-06-29T11:44:14.395Z,13.39
2018-06-29T11:45:14.383Z,13.49
2018-06-29T11:46:14.398Z,14.09
2018-06-29T11:47:14.581Z,13.21
2018-06-29T11:48:14.448Z,13.31
2018-06-29T11:49:14.451Z,13.21
2018-06-29T11:50:14.465Z,13.62
2018-06-29T11:51:14.483Z,13.32
2018-06-29T11:52:14.501Z,12.93
2018-06-29T11:53:16.753Z,12.05
2018-06-29T11:54:14.548Z,11.76
2018-06-29T11:55:14.576Z,11.86
2018-06-29T11:56:14.573Z,10.77
2018-06-29T11:57:14.595Z,10.69
2018-06-29T11:58:14.610Z,10.49
2018-06-29T11:59:14.628Z,11.98
2018-06-29T12:00:14.645Z,12.95
2018-06-29T12:01:14.663Z,12.84
2018-06-29T12:02:14.682Z,12.82
2018-06-29T12:03:14.698Z,13.21
2018-06-29T12:04:14.718Z,13.89
2018-06-29T12:05:14.743Z,14.27
2018-06-29T12:06:14.762Z,14.57
2018-06-29T12:07:14.823Z,14.87
2018-06-29T12:08:14.787Z,14.08
2018-06-29T12:09:14.805Z,14.28
2018-06-29T12:10:14.826Z,14.18
2018-06-29T12:11:14.838Z,14.38
2018-06-29T12:12:14.855Z,13.89
2018-06-29T12:13:14.883Z,14.00
2018-06-29T12:14:14.886Z,13.60
2018-06-29T12:15:14.904Z,13.51
2018-06-29T12:16:14.934Z,13.13
2018-06-29T12:17:14.941Z,13.23
2018-06-29T12:18:16.011Z,12.25
2018-06-29T12:19:14.975Z,11.96
2018-06-29T12:20:14.991Z,11.56
2018-06-29T12:21:15.007Z,11.85
2018-06-29T12:22:15.026Z,12.24
2018-06-29T12:23:15.067Z,12.24
2018-06-29T12:24:15.061Z,12.14
2018-06-29T12:25:15.075Z,12.13
2018-06-29T12:26:15.102Z,11.74
2018-06-29T12:27:15.113Z,10.66
2018-06-29T12:28:15.135Z,10.17
2018-06-29T12:29:15.145Z,10.17
2018-06-29T12:30:15.163Z,10.08
2018-06-29T12:31:15.181Z,9.69
2018-06-29T12:32:15.198Z,9.88
2018-06-29T12:33:15.215Z,10.47
2018-06-29T12:34:15.232Z,10.27
2018-06-29T12:35:15.253Z,10.96
2018-06-29T12:36:15.288Z,10.26
2018-06-29T12:37:15.287Z,10.77
2018-06-29T12:38:15.321Z,10.36
2018-06-29T12:39:15.320Z,10.47
2018-06-29T12:40:15.345Z,10.38
2018-06-29T12:41:15.376Z,10.09
2018-06-29T12:42:15.378Z,9.79
2018-06-29T12:43:15.420Z,9.40
2018-06-29T12:44:15.412Z,9.50
2018-06-29T12:45:15.432Z,9.40
2018-06-29T12:46:15.449Z,9.98
2018-06-29T12:47:15.467Z,10.46
2018-06-29T12:48:15.544Z,11.63
2018-06-29T12:49:15.508Z,12.21
2018-06-29T12:50:15.519Z,12.70
2018-06-29T12:51:15.548Z,12.79
2018-06-29T12:52:15.554Z,13.28
2018-06-29T12:53:15.571Z,13.57